CSCL Oceania — VRBI2 — position and weather

sailwx.info

Track history (hours):
 
Tides and Currents Weather Stations Pressure Air Temp Water Temp Dewpoint Dewpoint Depression Visibility Wind Speed Wind Dir Waves Ship Positions

CSCL Oceania

Last reported at 2014-Sep-30 18:33 UTC. Time now 2014-Oct-01 18:24 UTC.
Position N 24°32' E 119°18'.

Length 334 m; beam 42.8 m; draft 14.5 m.

Type: Cargo ship. MMSI: 477020300.

Date/timePositionNaut miles runAvg speedWind from/ knotsBaromVisibWave heightAir tempDewpointWater temp
2014-Sep-30 18:33N 24°32' E 119°18'1111.6
2014-Sep-30 17:33N 24°24' E 119°09'4711.7
2014-Sep-30 13:33N 23°55' E 118°28'1212.2
2014-Sep-30 12:33N 23°47' E 118°18'1211.9
2014-Sep-30 11:32N 23°39' E 118°08'2311.8
2014-Sep-30 09:33N 23°24' E 117°49'4713.5
2014-Sep-30 06:06N 22°58' E 117°07'814.6
2014-Sep-30 05:32N 22°53' E 116°59'16412.6
2014-Sep-29 16:31N 22°17' E 114°06'3 0.1
2014-Sep-28 21:13N 22°20' E 114°07'  
2014-Sep-26 06:00N 15°30' E 112°42'   080 / 51012.810.8 32.027.929.0
2014-Sep-24 00:00N 04°48' E 106°12'24812.7 040 / 21009.810.8 30.024.3
2014-Sep-23 04:33N 01°16' E 104°04'1313.0
2014-Sep-23 03:34N 01°11' E 103°52'9 9.3
2014-Sep-23 02:34N 01°17' E 103°45'0 0.5
2014-Sep-23 01:32N 01°17' E 103°45'0 0.0
2014-Sep-23 00:32N 01°17' E 103°45'0 0.0
2014-Sep-22 23:32N 01°17' E 103°45'0 0.0
2014-Sep-22 22:32N 01°17' E 103°45'0 0.0
2014-Sep-22 21:32N 01°17' E 103°45'0 0.0
2014-Sep-22 20:32N 01°17' E 103°45'0 0.0
2014-Sep-22 19:32N 01°17' E 103°45'0 0.0
2014-Sep-22 18:32N 01°17' E 103°45'0 0.0
2014-Sep-22 17:32N 01°17' E 103°45'0 0.1
2014-Sep-22 16:34N 01°17' E 103°45'8 7.9
2014-Sep-22 15:34N 01°12' E 103°39'6 5.8
2014-Sep-22 14:34N 01°11' E 103°33'9 8.5
2014-Sep-22 13:33N 01°12' E 103°25'  
Track history (hours):
 
Tides and Currents Weather Stations Pressure Air Temp Water Temp Dewpoint Dewpoint Depression Visibility Wind Speed Wind Dir Waves Ship Positions

CSCL Oceania

Last reported at 2014-Sep-30 18:33 UTC. Time now 2014-Oct-01 18:24 UTC.
Position N 24°32' E 119°18'.

Length 334 m; beam 42.8 m; draft 14.5 m.

Type: Cargo ship. MMSI: 477020300.

Date/timePositionNaut miles runAvg speedWind from/ knotsBaromVisibWave heightAir tempDewpointWater temp
2014-Sep-30 18:33N 24°32' E 119°18'1111.6
2014-Sep-30 17:33N 24°24' E 119°09'4711.7
2014-Sep-30 13:33N 23°55' E 118°28'1212.2
2014-Sep-30 12:33N 23°47' E 118°18'1211.9
2014-Sep-30 11:32N 23°39' E 118°08'2311.8
2014-Sep-30 09:33N 23°24' E 117°49'4713.5
2014-Sep-30 06:06N 22°58' E 117°07'814.6
2014-Sep-30 05:32N 22°53' E 116°59'16412.6
2014-Sep-29 16:31N 22°17' E 114°06'3 0.1
2014-Sep-28 21:13N 22°20' E 114°07'  
2014-Sep-26 06:00N 15°30' E 112°42'   080 / 51012.810.8 32.027.929.0
2014-Sep-24 00:00N 04°48' E 106°12'24812.7 040 / 21009.810.8 30.024.3
2014-Sep-23 04:33N 01°16' E 104°04'1313.0
2014-Sep-23 03:34N 01°11' E 103°52'9 9.3
2014-Sep-23 02:34N 01°17' E 103°45'0 0.5
2014-Sep-23 01:32N 01°17' E 103°45'0 0.0
2014-Sep-23 00:32N 01°17' E 103°45'0 0.0
2014-Sep-22 23:32N 01°17' E 103°45'0 0.0
2014-Sep-22 22:32N 01°17' E 103°45'0 0.0
2014-Sep-22 21:32N 01°17' E 103°45'0 0.0
2014-Sep-22 20:32N 01°17' E 103°45'0 0.0
2014-Sep-22 19:32N 01°17' E 103°45'0 0.0
2014-Sep-22 18:32N 01°17' E 103°45'0 0.0
2014-Sep-22 17:32N 01°17' E 103°45'0 0.1
2014-Sep-22 16:34N 01°17' E 103°45'8 7.9
2014-Sep-22 15:34N 01°12' E 103°39'6 5.8
2014-Sep-22 14:34N 01°11' E 103°33'9 8.5
2014-Sep-22 13:33N 01°12' E 103°25'  

Dump ship's entire track history